Time;durP1;ratioP1;P1;durP2;ratioP2;P2;SDS_P1;SDS_P2;PMS_P1;PMS_P2;Temp;Humidity;BMP_temperature;BMP_pressure;BME280_temperature;BME280_humidity;BME280_pressure;Samples;Min_cycle;Max_cycle;Signal;HPM_P1;HPM_P2
2023/08/04 00:00:16;;;;;;;5.40;3.75;;;;;;;;;;12982054;22;20396;-83
2023/08/04 00:05:18;;;;;;;5.37;3.70;;;;;;;;;;12969696;22;20412;-83
2023/08/04 00:10:21;;;;;;;5.07;4.00;;;;;;;;;;12982220;22;20363;-83
2023/08/04 00:15:25;;;;;;;6.80;4.30;;;;;;;;;;12989624;22;20440;-84
2023/08/04 00:20:27;;;;;;;7.75;4.85;;;;;;;;;;12981499;22;20441;-83
2023/08/04 00:25:29;;;;;;;6.40;4.68;;;;;;;;;;12981046;22;20856;-83
2023/08/04 00:30:33;;;;;;;6.45;5.00;;;;;;;;;;12980670;22;20366;-83
2023/08/04 00:35:35;;;;;;;6.78;4.88;;;;;;;;;;12979906;22;20846;-83
2023/08/04 00:40:37;;;;;;;7.78;5.50;;;;;;;;;;12977538;22;20440;-84
2023/08/04 00:45:41;;;;;;;7.65;5.82;;;;;;;;;;12978629;22;20448;-83
2023/08/04 00:50:43;;;;;;;8.38;5.88;;;;;;;;;;12950252;22;20774;-83
2023/08/04 00:55:46;;;;;;;6.50;5.27;;;;;;;;;;12915539;23;20413;-83
2023/08/04 01:00:49;;;;;;;8.37;5.13;;;;;;;;;;12914985;23;20360;-83
2023/08/04 01:06:00;;;;;;;7.05;5.25;;;;;;;;;;12917600;23;20925;-83
2023/08/04 01:11:08;;;;;;;6.25;4.55;;;;;;;;;;12923276;23;20368;-83
2023/08/04 01:16:11;;;;;;;6.43;4.63;;;;;;;;;;12916906;23;20364;-83
2023/08/04 01:21:15;;;;;;;6.55;4.93;;;;;;;;;;12918231;23;20418;-83
2023/08/04 01:26:17;;;;;;;6.07;4.80;;;;;;;;;;12917536;23;20439;-83
2023/08/04 01:31:20;;;;;;;7.95;4.70;;;;;;;;;;12917798;23;20376;-83
2023/08/04 01:36:24;;;;;;;5.67;4.10;;;;;;;;;;12918079;23;20368;-84
2023/08/04 01:41:26;;;;;;;6.28;4.20;;;;;;;;;;12916803;23;20364;-84
2023/08/04 01:46:28;;;;;;;6.63;4.05;;;;;;;;;;12915582;23;20427;-84
2023/08/04 01:51:32;;;;;;;6.13;4.57;;;;;;;;;;12951086;22;20703;-83
2023/08/04 01:56:34;;;;;;;7.13;4.65;;;;;;;;;;12979581;22;20366;-84
2023/08/04 02:01:36;;;;;;;6.10;4.88;;;;;;;;;;12979578;22;20409;-83
2023/08/04 02:06:40;;;;;;;5.83;4.20;;;;;;;;;;12979374;22;20366;-83
2023/08/04 02:11:42;;;;;;;5.72;4.45;;;;;;;;;;12984084;22;20392;-83
2023/08/04 02:16:44;;;;;;;6.72;4.60;;;;;;;;;;12979944;22;20358;-83
2023/08/04 02:21:48;;;;;;;5.73;4.13;;;;;;;;;;12979731;22;20367;-83
2023/08/04 02:26:50;;;;;;;6.03;4.20;;;;;;;;;;12979482;22;20421;-83
2023/08/04 02:31:53;;;;;;;5.78;4.10;;;;;;;;;;12978836;22;20424;-84
2023/08/04 02:36:56;;;;;;;5.90;4.30;;;;;;;;;;12979130;22;20468;-83
2023/08/04 02:41:59;;;;;;;5.25;4.28;;;;;;;;;;12979272;22;20424;-83
2023/08/04 02:47:01;;;;;;;7.30;4.33;;;;;;;;;;12979479;22;20363;-83
2023/08/04 02:52:06;;;;;;;6.77;4.50;;;;;;;;;;12979002;22;20374;-83
2023/08/04 02:57:09;;;;;;;8.88;4.60;;;;;;;;;;12978576;22;20390;-83
2023/08/04 03:02:11;;;;;;;6.13;4.80;;;;;;;;;;12979237;22;20374;-83
2023/08/04 03:07:15;;;;;;;8.50;4.80;;;;;;;;;;12979431;22;20428;-83
2023/08/04 03:12:17;;;;;;;5.88;4.40;;;;;;;;;;12979529;22;20362;-83
2023/08/04 03:17:19;;;;;;;7.40;6.00;;;;;;;;;;12983591;22;20421;-83
2023/08/04 03:22:23;;;;;;;8.73;5.80;;;;;;;;;;12978423;22;20436;-83
2023/08/04 03:27:27;;;;;;;7.45;5.85;;;;;;;;;;12978268;22;20420;-83
2023/08/04 03:32:29;;;;;;;6.15;4.95;;;;;;;;;;12978582;22;20420;-83
2023/08/04 03:37:33;;;;;;;8.90;6.03;;;;;;;;;;12978848;22;20362;-83
2023/08/04 03:42:36;;;;;;;8.45;6.00;;;;;;;;;;12978833;22;20387;-83
2023/08/04 03:47:38;;;;;;;8.67;6.13;;;;;;;;;;12978209;22;20530;-83
2023/08/04 03:52:42;;;;;;;9.40;6.73;;;;;;;;;;12927415;22;20376;-83
2023/08/04 03:57:44;;;;;;;8.50;6.45;;;;;;;;;;12915664;23;20372;-83
2023/08/04 04:02:47;;;;;;;9.83;6.60;;;;;;;;;;12915270;23;20690;-83
2023/08/04 04:07:51;;;;;;;9.85;7.03;;;;;;;;;;12915229;23;20372;-83
2023/08/04 04:12:53;;;;;;;11.15;7.43;;;;;;;;;;12915111;23;20361;-83
2023/08/04 04:17:55;;;;;;;11.00;7.50;;;;;;;;;;12928425;23;20365;-83
2023/08/04 04:22:59;;;;;;;11.85;7.72;;;;;;;;;;12919064;23;20384;-83
2023/08/04 04:28:01;;;;;;;10.15;7.00;;;;;;;;;;12918503;23;20710;-83
2023/08/04 04:33:03;;;;;;;7.82;6.30;;;;;;;;;;12918690;23;20376;-83
2023/08/04 04:38:07;;;;;;;9.10;6.30;;;;;;;;;;12917961;23;20423;-83
2023/08/04 04:43:09;;;;;;;7.43;5.63;;;;;;;;;;12918001;23;20449;-83
2023/08/04 04:48:12;;;;;;;7.73;5.47;;;;;;;;;;12917247;23;20980;-83
2023/08/04 04:53:15;;;;;;;8.90;5.20;;;;;;;;;;12917371;22;20426;-83
2023/08/04 04:58:18;;;;;;;8.03;4.80;;;;;;;;;;12917998;23;20938;-83
2023/08/04 05:03:20;;;;;;;6.20;4.83;;;;;;;;;;12915496;23;20458;-84
2023/08/04 05:08:23;;;;;;;6.15;4.40;;;;;;;;;;12918128;23;20364;-83
2023/08/04 05:13:26;;;;;;;7.17;4.43;;;;;;;;;;12916228;23;20642;-82
2023/08/04 05:18:28;;;;;;;6.60;4.30;;;;;;;;;;12917853;23;20372;-83
2023/08/04 05:23:32;;;;;;;6.60;4.63;;;;;;;;;;12924029;23;20388;-83
2023/08/04 05:28:34;;;;;;;4.95;4.00;;;;;;;;;;12917089;23;20839;-83
2023/08/04 05:33:36;;;;;;;6.47;4.55;;;;;;;;;;12937830;23;20410;-83
2023/08/04 05:38:40;;;;;;;6.85;4.60;;;;;;;;;;12916372;23;20832;-82
2023/08/04 05:43:42;;;;;;;5.87;4.33;;;;;;;;;;12912829;23;20439;-83
2023/08/04 05:48:44;;;;;;;9.82;5.32;;;;;;;;;;12911229;22;20838;-82
2023/08/04 05:53:48;;;;;;;8.60;4.75;;;;;;;;;;12911708;23;20364;-83
2023/08/04 05:58:50;;;;;;;7.87;4.17;;;;;;;;;;12908138;23;20372;-81
2023/08/04 06:03:53;;;;;;;9.13;5.00;;;;;;;;;;12911218;23;20461;-83
2023/08/04 06:08:56;;;;;;;4.90;4.20;;;;;;;;;;12914536;23;20381;-81
2023/08/04 06:13:58;;;;;;;6.83;4.87;;;;;;;;;;12914686;23;20372;-81
2023/08/04 06:19:01;;;;;;;5.83;3.67;;;;;;;;;;12914926;23;20365;-82
2023/08/04 06:24:05;;;;;;;6.22;4.00;;;;;;;;;;12916167;23;20446;-81
2023/08/04 06:29:07;;;;;;;6.22;4.03;;;;;;;;;;12918011;23;20380;-82
2023/08/04 06:34:09;;;;;;;7.30;4.40;;;;;;;;;;12915662;23;20373;-82
2023/08/04 06:39:13;;;;;;;7.95;4.60;;;;;;;;;;12914480;23;20903;-81
2023/08/04 06:44:15;;;;;;;9.30;4.82;;;;;;;;;;12914796;23;20450;-82
2023/08/04 06:49:18;;;;;;;6.13;3.88;;;;;;;;;;12921899;22;20370;-82
2023/08/04 06:54:21;;;;;;;6.18;4.43;;;;;;;;;;12977051;22;20370;-82
2023/08/04 06:59:24;;;;;;;7.13;4.50;;;;;;;;;;12976794;22;20366;-83
2023/08/04 07:04:26;;;;;;;5.77;4.20;;;;;;;;;;12978835;22;20378;-82
2023/08/04 07:09:30;;;;;;;8.48;4.30;;;;;;;;;;12977236;22;21006;-82
2023/08/04 07:14:32;;;;;;;6.20;4.55;;;;;;;;;;12978398;22;20362;-82
2023/08/04 07:19:34;;;;;;;6.75;4.78;;;;;;;;;;12978223;22;20904;-82
2023/08/04 07:24:38;;;;;;;6.13;4.22;;;;;;;;;;12977517;22;20444;-82
2023/08/04 07:29:40;;;;;;;7.50;5.30;;;;;;;;;;12978267;22;20424;-82
2023/08/04 07:34:43;;;;;;;8.90;4.13;;;;;;;;;;12984958;22;20366;-81
2023/08/04 07:39:46;;;;;;;8.63;4.90;;;;;;;;;;12999991;22;20893;-82
2023/08/04 07:44:49;;;;;;;6.15;4.60;;;;;;;;;;12978340;22;20387;-82
2023/08/04 07:49:51;;;;;;;8.30;4.85;;;;;;;;;;12979028;22;20686;-82
2023/08/04 07:54:54;;;;;;;6.88;4.90;;;;;;;;;;12981371;22;20405;-82
2023/08/04 07:59:57;;;;;;;7.47;4.70;;;;;;;;;;12981520;22;20420;-82
2023/08/04 08:04:59;;;;;;;8.68;4.80;;;;;;;;;;12980222;22;20670;-82
2023/08/04 08:10:03;;;;;;;6.30;4.60;;;;;;;;;;12981613;22;20363;-83
2023/08/04 08:15:07;;;;;;;9.77;5.03;;;;;;;;;;12981041;22;20367;-83
2023/08/04 08:20:10;;;;;;;6.68;4.80;;;;;;;;;;12980240;22;21120;-83
2023/08/04 08:25:14;;;;;;;8.13;4.63;;;;;;;;;;12980646;22;20854;-83
2023/08/04 08:30:17;;;;;;;10.85;5.82;;;;;;;;;;12980326;22;20371;-82
2023/08/04 08:35:20;;;;;;;8.00;5.00;;;;;;;;;;12981032;22;20367;-82
2023/08/04 08:40:25;;;;;;;7.05;4.57;;;;;;;;;;12988668;22;20401;-82
2023/08/04 08:45:28;;;;;;;7.30;4.10;;;;;;;;;;12980726;22;20379;-82
2023/08/04 08:50:31;;;;;;;6.43;3.67;;;;;;;;;;12980096;22;20403;-82
2023/08/04 08:55:35;;;;;;;6.40;4.07;;;;;;;;;;12980057;22;20425;-82
2023/08/04 09:00:38;;;;;;;7.27;3.40;;;;;;;;;;12980000;22;20397;-81
2023/08/04 09:05:40;;;;;;;7.75;3.13;;;;;;;;;;12980133;22;20382;-80
2023/08/04 09:10:44;;;;;;;6.10;2.95;;;;;;;;;;12980589;22;20363;-81
2023/08/04 09:15:48;;;;;;;5.38;2.78;;;;;;;;;;12980180;22;20371;-81
2023/08/04 09:20:58;;;;;;;5.00;3.47;;;;;;;;;;12977485;22;20420;-81
2023/08/04 09:26:02;;;;;;;8.37;3.60;;;;;;;;;;12977801;22;20707;-80
2023/08/04 09:31:05;;;;;;;6.82;3.80;;;;;;;;;;12978881;22;20370;-80
2023/08/04 09:36:09;;;;;;;5.75;3.20;;;;;;;;;;12977777;22;20371;-80
2023/08/04 09:41:14;;;;;;;5.20;2.75;;;;;;;;;;12977956;22;20423;-81
2023/08/04 09:46:17;;;;;;;5.25;2.65;;;;;;;;;;12978173;22;20382;-81
2023/08/04 09:51:20;;;;;;;6.73;2.63;;;;;;;;;;12979051;22;20374;-81
2023/08/04 09:56:26;;;;;;;4.47;2.90;;;;;;;;;;12974230;22;20366;-81
2023/08/04 10:01:29;;;;;;;4.35;3.30;;;;;;;;;;12977943;22;20367;-80
2023/08/04 10:06:34;;;;;;;4.20;2.40;;;;;;;;;;12977853;22;20527;-81
2023/08/04 10:11:38;;;;;;;4.43;2.95;;;;;;;;;;12977313;22;20382;-81
2023/08/04 10:16:41;;;;;;;6.50;3.10;;;;;;;;;;12977781;22;20367;-81
2023/08/04 10:21:44;;;;;;;6.30;3.30;;;;;;;;;;12976568;22;20363;-80
2023/08/04 10:26:49;;;;;;;5.70;3.30;;;;;;;;;;12976691;22;20731;-81
2023/08/04 10:31:53;;;;;;;6.07;3.60;;;;;;;;;;12977183;22;20382;-81
2023/08/04 10:36:59;;;;;;;6.97;4.03;;;;;;;;;;12975978;22;20367;-81
2023/08/04 10:42:06;;;;;;;6.97;3.77;;;;;;;;;;12975460;22;20367;-79
2023/08/04 10:47:08;;;;;;;6.28;3.60;;;;;;;;;;12976133;22;20412;-79
2023/08/04 10:52:11;;;;;;;7.43;3.78;;;;;;;;;;12974895;22;20420;-82
2023/08/04 10:57:21;;;;;;;6.45;3.70;;;;;;;;;;12973847;22;20393;-82
2023/08/04 11:02:25;;;;;;;5.88;3.28;;;;;;;;;;12966690;22;20452;-81
2023/08/04 11:07:28;;;;;;;8.02;4.35;;;;;;;;;;12966963;22;20719;-80
2023/08/04 11:12:33;;;;;;;6.10;2.03;;;;;;;;;;12986453;22;20420;-80
2023/08/04 11:17:39;;;;;;;4.38;1.98;;;;;;;;;;12969105;22;20440;-79
2023/08/04 11:22:45;;;;;;;3.83;1.83;;;;;;;;;;12967655;22;20382;-80
2023/08/04 11:27:49;;;;;;;3.38;1.52;;;;;;;;;;12972155;22;20444;-80
2023/08/04 11:32:51;;;;;;;3.33;1.40;;;;;;;;;;12972394;22;20382;-80
2023/08/04 11:37:53;;;;;;;3.17;1.90;;;;;;;;;;12970289;22;20374;-80
2023/08/04 11:43:00;;;;;;;2.33;1.60;;;;;;;;;;12971685;22;20378;-80
2023/08/04 11:48:02;;;;;;;3.53;1.80;;;;;;;;;;12972746;22;20931;-80
2023/08/04 11:53:05;;;;;;;3.58;1.80;;;;;;;;;;12969351;22;20382;-80
2023/08/04 11:58:08;;;;;;;2.83;1.70;;;;;;;;;;12967641;22;20382;-80
2023/08/04 12:03:10;;;;;;;3.20;1.88;;;;;;;;;;12975768;22;20366;-79
2023/08/04 12:08:14;;;;;;;4.75;2.30;;;;;;;;;;12975551;22;20386;-79
2023/08/04 12:13:36;;;;;;;3.65;2.60;;;;;;;;;;12974214;22;20435;-80
2023/08/04 12:18:39;;;;;;;5.07;2.80;;;;;;;;;;12975011;22;20728;-80
2023/08/04 12:23:47;;;;;;;4.77;3.10;;;;;;;;;;12976147;22;20370;-82
2023/08/04 12:28:50;;;;;;;3.93;3.30;;;;;;;;;;12978878;22;20390;-82
2023/08/04 12:33:53;;;;;;;3.88;3.20;;;;;;;;;;12979733;22;20367;-83
2023/08/04 12:38:55;;;;;;;5.97;3.03;;;;;;;;;;12976428;22;20428;-82
2023/08/04 12:43:59;;;;;;;3.50;2.87;;;;;;;;;;12973786;22;20421;-82
2023/08/04 12:49:02;;;;;;;5.97;2.33;;;;;;;;;;12969746;22;20382;-82
2023/08/04 12:54:05;;;;;;;1.70;1.50;;;;;;;;;;12968050;22;20397;-83
2023/08/04 12:59:08;;;;;;;2.53;1.75;;;;;;;;;;12975115;22;20371;-82
2023/08/04 13:04:10;;;;;;;2.60;1.42;;;;;;;;;;12975369;22;20397;-82
2023/08/04 13:09:13;;;;;;;1.20;1.10;;;;;;;;;;12983121;22;20707;-82
2023/08/04 13:14:17;;;;;;;1.50;0.90;;;;;;;;;;12972679;22;20370;-82
2023/08/04 13:19:19;;;;;;;0.80;0.80;;;;;;;;;;12975273;22;20852;-83
2023/08/04 13:24:22;;;;;;;2.35;0.70;;;;;;;;;;12976773;22;20854;-82
2023/08/04 13:29:25;;;;;;;1.37;0.90;;;;;;;;;;12977820;22;20858;-82
2023/08/04 13:34:27;;;;;;;3.03;1.10;;;;;;;;;;12977891;22;20440;-83
2023/08/04 13:39:30;;;;;;;2.10;1.13;;;;;;;;;;12976564;22;20526;-83
2023/08/04 13:44:33;;;;;;;2.10;0.90;;;;;;;;;;12999521;22;20695;-83
2023/08/04 13:49:36;;;;;;;1.45;0.75;;;;;;;;;;12978027;22;20382;-83
2023/08/04 13:54:38;;;;;;;5.33;1.00;;;;;;;;;;12978659;22;20362;-83
2023/08/04 13:59:42;;;;;;;1.07;0.57;;;;;;;;;;12978314;22;20374;-83
2023/08/04 14:04:44;;;;;;;2.00;1.07;;;;;;;;;;12979450;22;20401;-82
2023/08/04 14:09:46;;;;;;;1.27;1.03;;;;;;;;;;12984967;22;20383;-83
2023/08/04 14:14:53;;;;;;;3.78;1.02;;;;;;;;;;12981806;22;20397;-83
2023/08/04 14:19:56;;;;;;;2.58;1.10;;;;;;;;;;12979185;22;20362;-82
2023/08/04 14:24:58;;;;;;;2.30;1.10;;;;;;;;;;12977659;22;20421;-82
2023/08/04 14:30:02;;;;;;;2.17;0.90;;;;;;;;;;12977881;22;20386;-79
2023/08/04 14:35:05;;;;;;;3.55;1.70;;;;;;;;;;12976528;22;20374;-80
2023/08/04 14:40:08;;;;;;;2.13;1.30;;;;;;;;;;12973103;22;20371;-79
2023/08/04 14:45:12;;;;;;;2.22;1.38;;;;;;;;;;12975619;22;20843;-80
2023/08/04 14:50:14;;;;;;;1.75;0.85;;;;;;;;;;12976673;22;20382;-79
2023/08/04 14:55:16;;;;;;;1.53;0.90;;;;;;;;;;12948852;22;20420;-80
2023/08/04 15:00:22;;;;;;;1.43;0.83;;;;;;;;;;12972458;22;20652;-79
2023/08/04 15:05:24;;;;;;;2.87;1.40;;;;;;;;;;12974300;22;20375;-80
2023/08/04 15:10:27;;;;;;;1.30;0.70;;;;;;;;;;12974409;22;20362;-80
2023/08/04 15:15:30;;;;;;;1.15;0.68;;;;;;;;;;12986654;22;20401;-80
2023/08/04 15:20:32;;;;;;;1.20;0.70;;;;;;;;;;12975329;22;20436;-80
2023/08/04 15:25:35;;;;;;;1.05;0.80;;;;;;;;;;12975160;22;20428;-80
2023/08/04 15:30:38;;;;;;;1.88;0.90;;;;;;;;;;12974041;22;20370;-80
2023/08/04 15:35:41;;;;;;;1.37;0.80;;;;;;;;;;12973593;22;20362;-80
2023/08/04 15:40:43;;;;;;;1.27;0.90;;;;;;;;;;12972578;22;20447;-80
2023/08/04 15:45:48;;;;;;;1.10;1.00;;;;;;;;;;12976030;22;20397;-80
2023/08/04 15:50:51;;;;;;;1.77;1.10;;;;;;;;;;12949742;22;20423;-80
2023/08/04 15:55:54;;;;;;;1.30;1.00;;;;;;;;;;12914454;23;20583;-80
2023/08/04 16:01:00;;;;;;;1.17;0.90;;;;;;;;;;12910982;23;20368;-80
2023/08/04 16:06:03;;;;;;;2.28;1.08;;;;;;;;;;12907704;23;20376;-80
2023/08/04 16:11:07;;;;;;;1.63;1.00;;;;;;;;;;12881910;23;20739;-83
2023/08/04 16:16:11;;;;;;;1.90;1.40;;;;;;;;;;12912605;23;20736;-84
2023/08/04 16:21:13;;;;;;;3.65;1.23;;;;;;;;;;12920094;23;20372;-80
2023/08/04 16:26:16;;;;;;;2.05;1.42;;;;;;;;;;12909162;22;20430;-79
2023/08/04 16:31:19;;;;;;;2.78;1.40;;;;;;;;;;12906983;23;20454;-79
2023/08/04 16:36:22;;;;;;;2.35;1.30;;;;;;;;;;12907784;23;20449;-82
2023/08/04 16:41:24;;;;;;;3.90;1.50;;;;;;;;;;12909153;23;20380;-80
2023/08/04 16:46:28;;;;;;;1.80;1.00;;;;;;;;;;12907927;23;20388;-81
2023/08/04 16:51:30;;;;;;;1.70;1.23;;;;;;;;;;12906853;22;20380;-81
2023/08/04 16:56:33;;;;;;;1.77;1.00;;;;;;;;;;12911995;23;20380;-81
2023/08/04 17:01:37;;;;;;;2.75;1.10;;;;;;;;;;12908852;23;20459;-82
2023/08/04 17:06:39;;;;;;;1.20;1.10;;;;;;;;;;12905407;23;20380;-81
2023/08/04 17:11:42;;;;;;;1.58;1.08;;;;;;;;;;12904801;23;20422;-80
2023/08/04 17:16:45;;;;;;;1.75;0.88;;;;;;;;;;12906441;23;20419;-81
2023/08/04 17:21:48;;;;;;;1.40;1.10;;;;;;;;;;12882076;23;20845;-81
2023/08/04 17:26:51;;;;;;;1.58;0.93;;;;;;;;;;12913144;23;20423;-81
2023/08/04 17:31:55;;;;;;;2.35;1.00;;;;;;;;;;12906324;23;20385;-92
2023/08/04 17:36:57;;;;;;;1.85;1.00;;;;;;;;;;12905757;23;20438;-81
2023/08/04 17:41:59;;;;;;;1.27;1.00;;;;;;;;;;12903830;23;21259;-81
2023/08/04 17:47:03;;;;;;;2.20;0.90;;;;;;;;;;12903169;23;20384;-80
2023/08/04 17:52:06;;;;;;;1.50;0.70;;;;;;;;;;12943470;22;20484;-81
2023/08/04 17:57:09;;;;;;;1.73;1.08;;;;;;;;;;12963149;22;20382;-80
2023/08/04 18:02:12;;;;;;;2.25;1.08;;;;;;;;;;12958540;22;20378;-79
2023/08/04 18:07:14;;;;;;;2.05;1.20;;;;;;;;;;12961100;22;20440;-81
2023/08/04 18:12:17;;;;;;;1.10;1.00;;;;;;;;;;12966150;22;20367;-81
2023/08/04 18:17:20;;;;;;;1.48;0.95;;;;;;;;;;12967983;22;20378;-81
2023/08/04 18:22:23;;;;;;;1.85;1.20;;;;;;;;;;12966613;22;20374;-81
2023/08/04 18:27:25;;;;;;;2.65;1.30;;;;;;;;;;12972914;22;20382;-82
2023/08/04 18:32:29;;;;;;;1.60;1.30;;;;;;;;;;12963054;22;20387;-80
2023/08/04 18:37:31;;;;;;;2.53;1.30;;;;;;;;;;12965118;22;20363;-80
2023/08/04 18:42:37;;;;;;;1.17;1.00;;;;;;;;;;12964277;22;20431;-80
2023/08/04 18:47:42;;;;;;;2.90;1.60;;;;;;;;;;12962295;22;20383;-80
2023/08/04 18:52:44;;;;;;;2.30;1.20;;;;;;;;;;12963371;22;20924;-80
2023/08/04 18:57:47;;;;;;;1.70;1.40;;;;;;;;;;12968103;22;20370;-80
2023/08/04 19:02:50;;;;;;;2.50;1.45;;;;;;;;;;12975665;22;20436;-80
2023/08/04 19:07:53;;;;;;;1.90;1.50;;;;;;;;;;12977182;22;20379;-79
2023/08/04 19:12:55;;;;;;;3.13;1.53;;;;;;;;;;12974801;22;20364;-81
2023/08/04 19:17:59;;;;;;;2.65;1.40;;;;;;;;;;12977503;22;20586;-79
2023/08/04 19:23:01;;;;;;;2.47;1.43;;;;;;;;;;12975346;22;20749;-80
2023/08/04 19:28:04;;;;;;;2.60;1.42;;;;;;;;;;12976756;22;20417;-79
2023/08/04 19:33:07;;;;;;;2.10;1.40;;;;;;;;;;12977648;22;20479;-79
2023/08/04 19:38:10;;;;;;;2.22;1.20;;;;;;;;;;12977730;22;20363;-79
2023/08/04 19:43:12;;;;;;;2.10;1.52;;;;;;;;;;12998927;22;20367;-79
2023/08/04 19:48:16;;;;;;;2.85;1.70;;;;;;;;;;12981973;22;20436;-78
2023/08/04 19:53:18;;;;;;;1.80;1.37;;;;;;;;;;12981046;22;20378;-79
2023/08/04 19:58:20;;;;;;;2.13;1.45;;;;;;;;;;12980562;22;20370;-80
2023/08/04 20:03:25;;;;;;;3.60;1.70;;;;;;;;;;12981602;22;20371;-79
2023/08/04 20:08:27;;;;;;;2.63;1.40;;;;;;;;;;12981681;22;20444;-80
2023/08/04 20:13:30;;;;;;;2.42;1.50;;;;;;;;;;12980333;22;20428;-80
2023/08/04 20:18:34;;;;;;;2.87;1.50;;;;;;;;;;12980410;22;20464;-80
2023/08/04 20:23:37;;;;;;;3.03;1.70;;;;;;;;;;12980771;22;20433;-79
2023/08/04 20:28:41;;;;;;;3.15;1.70;;;;;;;;;;12980681;22;20440;-79
2023/08/04 20:33:44;;;;;;;2.15;1.90;;;;;;;;;;12980647;22;20448;-79
2023/08/04 20:38:47;;;;;;;3.20;2.28;;;;;;;;;;12980508;22;20362;-79
2023/08/04 20:43:49;;;;;;;3.70;2.20;;;;;;;;;;12980123;22;20405;-80
2023/08/04 20:48:53;;;;;;;2.75;2.25;;;;;;;;;;12979836;22;20379;-79
2023/08/04 20:53:55;;;;;;;2.83;2.00;;;;;;;;;;12980921;22;20424;-79
2023/08/04 20:58:58;;;;;;;2.30;2.00;;;;;;;;;;12980039;22;20397;-79
2023/08/04 21:04:01;;;;;;;4.63;2.13;;;;;;;;;;12978233;22;20610;-79
2023/08/04 21:09:04;;;;;;;2.70;1.90;;;;;;;;;;12968892;22;20421;-79
2023/08/04 21:14:06;;;;;;;3.35;2.10;;;;;;;;;;12968779;22;20448;-79
2023/08/04 21:19:10;;;;;;;3.20;2.03;;;;;;;;;;12967072;22;20383;-79
2023/08/04 21:24:12;;;;;;;3.17;2.40;;;;;;;;;;12968480;22;20443;-79
2023/08/04 21:29:14;;;;;;;3.20;2.45;;;;;;;;;;12969130;22;20390;-79
2023/08/04 21:34:18;;;;;;;3.35;2.05;;;;;;;;;;12980475;22;20704;-79
2023/08/04 21:39:20;;;;;;;3.08;1.80;;;;;;;;;;12969047;22;20432;-79
2023/08/04 21:44:22;;;;;;;2.90;1.70;;;;;;;;;;12970399;22;20378;-79
2023/08/04 21:49:26;;;;;;;3.45;1.80;;;;;;;;;;12969415;22;20444;-79
2023/08/04 21:54:30;;;;;;;2.97;1.80;;;;;;;;;;12969447;22;20385;-79
2023/08/04 21:59:32;;;;;;;3.05;2.00;;;;;;;;;;12970033;22;20440;-79
2023/08/04 22:04:36;;;;;;;2.97;2.20;;;;;;;;;;12968517;22;20378;-79
2023/08/04 22:09:38;;;;;;;3.13;2.00;;;;;;;;;;12971476;22;20472;-79
2023/08/04 22:14:41;;;;;;;2.20;1.90;;;;;;;;;;12974413;22;20366;-77
2023/08/04 22:19:44;;;;;;;3.07;2.00;;;;;;;;;;12973771;22;20358;-79
2023/08/04 22:24:47;;;;;;;2.50;2.00;;;;;;;;;;12976921;22;20842;-80
2023/08/04 22:29:49;;;;;;;5.53;2.10;;;;;;;;;;12977569;22;20884;-80
2023/08/04 22:34:53;;;;;;;2.80;2.20;;;;;;;;;;12978513;22;20428;-79
2023/08/04 22:39:55;;;;;;;4.30;2.60;;;;;;;;;;12978134;22;20359;-80
2023/08/04 22:44:57;;;;;;;3.20;2.50;;;;;;;;;;12977638;22;20696;-80
2023/08/04 22:50:01;;;;;;;4.60;2.45;;;;;;;;;;12977438;22;20436;-79
2023/08/04 22:55:04;;;;;;;3.73;2.70;;;;;;;;;;12978614;22;20436;-79
2023/08/04 23:00:07;;;;;;;3.83;3.03;;;;;;;;;;12977168;22;20366;-80
2023/08/04 23:05:11;;;;;;;5.00;3.15;;;;;;;;;;12978422;22;20692;-79
2023/08/04 23:10:13;;;;;;;4.22;2.90;;;;;;;;;;12977490;22;20932;-80
2023/08/04 23:15:16;;;;;;;3.45;2.33;;;;;;;;;;12977790;22;20429;-79
2023/08/04 23:20:19;;;;;;;2.77;2.40;;;;;;;;;;12954867;22;20359;-80
2023/08/04 23:25:22;;;;;;;3.43;2.40;;;;;;;;;;12984586;22;20362;-79
2023/08/04 23:30:24;;;;;;;4.28;2.40;;;;;;;;;;12984997;22;20382;-80
2023/08/04 23:35:27;;;;;;;3.90;2.20;;;;;;;;;;12985216;22;20837;-79
2023/08/04 23:40:30;;;;;;;3.25;2.28;;;;;;;;;;12984835;22;20695;-79
2023/08/04 23:45:32;;;;;;;3.73;2.20;;;;;;;;;;12985307;22;20362;-80
2023/08/04 23:50:36;;;;;;;2.97;2.53;;;;;;;;;;12984423;22;20459;-80
2023/08/04 23:55:38;;;;;;;5.10;2.53;;;;;;;;;;12985231;22;20465;-79
